Time;durP1;ratioP1;P1;durP2;ratioP2;P2;SDS_P1;SDS_P2;PMS_P1;PMS_P2;Temp;Humidity;BMP_temperature;BMP_pressure;BME280_temperature;BME280_humidity;BME280_pressure;Samples;Min_cycle;Max_cycle;Signal;HPM_P1;HPM_P2
2021/06/20 00:00:52;;;;;;;153.63;55.27;;;18.60;99.90;;;;;;5110016;28;20800;-92
2021/06/20 00:03:18;;;;;;;160.00;53.57;;;18.60;99.90;;;;;;5106005;28;20418;-92
2021/06/20 00:06:01;;;;;;;159.60;55.70;;;18.70;99.90;;;;;;5102751;28;20266;-92
2021/06/20 00:08:27;;;;;;;151.85;56.10;;;18.70;99.90;;;;;;5095079;28;20286;-92
2021/06/20 00:10:53;;;;;;;162.63;52.30;;;18.70;99.90;;;;;;5093994;28;20192;-92
2021/06/20 00:13:20;;;;;;;128.45;48.42;;;18.50;99.90;;;;;;5085644;28;20181;-92
2021/06/20 00:15:47;;;;;;;141.10;52.20;;;18.60;99.90;;;;;;5087492;28;20615;-92
2021/06/20 00:18:15;;;;;;;141.20;49.85;;;18.60;99.90;;;;;;5095653;28;20542;-92
2021/06/20 00:20:44;;;;;;;155.13;52.38;;;18.70;99.90;;;;;;5104080;28;20180;-92
2021/06/20 00:23:11;;;;;;;146.95;49.33;;;18.60;99.90;;;;;;5112771;28;20159;-91
2021/06/20 00:25:38;;;;;;;145.63;46.97;;;18.60;99.90;;;;;;5115476;28;20172;-91
2021/06/20 00:28:04;;;;;;;141.63;49.90;;;18.60;99.90;;;;;;5106685;28;20196;-91
2021/06/20 00:30:32;;;;;;;145.70;48.22;;;18.70;99.90;;;;;;5098448;28;20599;-91
2021/06/20 00:32:58;;;;;;;137.77;49.83;;;18.70;99.90;;;;;;5098392;28;20225;-91
2021/06/20 00:35:24;;;;;;;132.17;46.20;;;18.70;99.90;;;;;;5098317;28;20195;-91
2021/06/20 00:37:50;;;;;;;139.45;44.42;;;18.60;99.90;;;;;;5098154;28;20932;-92
2021/06/20 00:40:18;;;;;;;121.00;42.92;;;18.70;99.90;;;;;;5099101;28;20184;-91
2021/06/20 00:42:44;;;;;;;135.80;46.22;;;18.70;99.90;;;;;;5097710;28;20202;-91
2021/06/20 00:45:13;;;;;;;130.57;44.65;;;18.70;99.90;;;;;;5097988;28;20188;-92
2021/06/20 00:47:39;;;;;;;120.97;43.55;;;18.80;99.90;;;;;;5097691;28;20196;-91
2021/06/20 00:50:06;;;;;;;139.83;47.43;;;18.80;99.90;;;;;;5097113;28;20217;-91
2021/06/20 00:52:33;;;;;;;124.13;43.47;;;18.70;99.90;;;;;;5097440;28;20441;-91
2021/06/20 00:54:59;;;;;;;149.13;50.58;;;18.70;99.90;;;;;;5097726;28;20266;-92
2021/06/20 00:57:25;;;;;;;158.33;48.00;;;18.50;97.00;;;;;;5097819;28;20265;-91
2021/06/20 00:59:52;;;;;;;136.50;51.47;;;18.60;96.10;;;;;;5098370;28;20176;-91
2021/06/20 01:02:19;;;;;;;157.65;53.45;;;18.50;95.80;;;;;;5096890;28;20203;-91
2021/06/20 01:04:47;;;;;;;162.68;53.03;;;18.60;95.60;;;;;;5098085;28;20183;-91
2021/06/20 01:07:18;;;;;;;145.70;56.60;;;18.70;95.90;;;;;;5097881;28;20191;-91
2021/06/20 01:09:44;;;;;;;163.15;56.22;;;18.60;95.80;;;;;;5098125;28;20187;-91
2021/06/20 01:12:11;;;;;;;140.85;53.67;;;18.60;95.90;;;;;;5097283;28;20196;-92
2021/06/20 01:14:37;;;;;;;170.45;59.47;;;18.60;95.90;;;;;;5097334;28;20175;-91
2021/06/20 01:17:04;;;;;;;143.18;55.42;;;18.70;96.60;;;;;;5098082;28;20210;-92
2021/06/20 01:19:31;;;;;;;150.25;55.28;;;18.70;95.50;;;;;;5097664;28;20581;-92
2021/06/20 01:22:11;;;;;;;164.32;59.10;;;18.60;94.50;;;;;;5097302;28;20196;-92
2021/06/20 01:24:37;;;;;;;141.98;54.03;;;18.50;93.80;;;;;;5097840;28;20176;-92
2021/06/20 01:27:03;;;;;;;150.30;55.00;;;18.60;94.20;;;;;;5097511;28;20182;-92
2021/06/20 01:29:33;;;;;;;144.75;55.15;;;18.60;94.40;;;;;;5097116;28;20266;-91
2021/06/20 01:31:59;;;;;;;144.95;53.38;;;18.60;94.30;;;;;;5096234;28;20579;-92
2021/06/20 01:34:24;;;;;;;128.57;52.53;;;18.60;94.00;;;;;;5097986;28;20168;-91
2021/06/20 01:36:50;;;;;;;142.00;51.00;;;18.60;93.70;;;;;;5097668;28;20168;-91
2021/06/20 01:39:16;;;;;;;134.23;51.80;;;18.60;93.70;;;;;;5097808;28;20422;-91
2021/06/20 01:41:42;;;;;;;132.40;48.67;;;18.60;93.90;;;;;;5095647;28;20247;-93
2021/06/20 01:44:07;;;;;;;111.60;49.30;;;18.60;93.50;;;;;;5096573;28;20570;-92
2021/06/20 01:46:33;;;;;;;120.23;47.83;;;18.60;93.20;;;;;;5097669;28;20422;-93
2021/06/20 01:48:59;;;;;;;122.50;46.57;;;18.60;93.00;;;;;;5097528;28;20202;-93
2021/06/20 01:51:24;;;;;;;105.50;48.60;;;18.80;92.70;;;;;;5097143;28;20192;-93
2021/06/20 01:53:50;;;;;;;101.90;45.87;;;18.80;92.60;;;;;;5098093;28;20658;-93
2021/06/20 01:56:16;;;;;;;96.93;43.93;;;18.80;92.30;;;;;;5097658;28;20180;-92
2021/06/20 01:58:41;;;;;;;100.47;44.93;;;18.70;91.40;;;;;;5096439;28;20213;-92
2021/06/20 02:01:07;;;;;;;91.93;42.07;;;18.60;91.20;;;;;;5096612;28;20199;-92
2021/06/20 02:03:33;;;;;;;86.77;43.10;;;18.80;91.60;;;;;;5096959;28;20224;-92
2021/06/20 02:06:00;;;;;;;80.80;40.50;;;18.90;91.70;;;;;;5096538;28;20207;-92
2021/06/20 02:08:27;;;;;;;79.15;38.42;;;18.90;91.60;;;;;;5096938;28;20199;-92
2021/06/20 02:10:55;;;;;;;90.50;42.30;;;19.00;91.40;;;;;;5096305;28;20196;-92
2021/06/20 02:13:24;;;;;;;76.57;41.50;;;19.00;90.90;;;;;;5096574;28;20236;-92
2021/06/20 02:15:53;;;;;;;75.82;38.13;;;19.00;90.80;;;;;;5096870;28;20183;-92
2021/06/20 02:18:21;;;;;;;80.00;41.75;;;19.00;90.60;;;;;;5096592;28;20248;-93
2021/06/20 02:20:47;;;;;;;77.90;40.63;;;19.10;90.60;;;;;;5096316;28;20221;-92
2021/06/20 02:23:13;;;;;;;72.53;40.50;;;19.20;90.60;;;;;;5097384;28;20172;-93
2021/06/20 02:25:41;;;;;;;78.33;40.77;;;19.00;90.90;;;;;;5096509;28;20179;-93
2021/06/20 02:28:07;;;;;;;91.93;40.88;;;19.10;91.50;;;;;;5096971;28;20537;-92
2021/06/20 02:30:35;;;;;;;79.43;39.50;;;19.20;91.20;;;;;;5096216;28;20176;-92
2021/06/20 02:33:00;;;;;;;87.15;38.30;;;19.20;91.00;;;;;;5096525;28;20211;-92
2021/06/20 02:35:27;;;;;;;76.23;38.97;;;19.20;90.70;;;;;;5096490;28;20176;-92
2021/06/20 02:37:53;;;;;;;83.60;40.47;;;19.20;90.80;;;;;;5096229;28;20179;-92
2021/06/20 02:40:20;;;;;;;89.07;41.17;;;19.20;90.80;;;;;;5095381;28;20176;-91
2021/06/20 02:42:47;;;;;;;78.40;41.17;;;19.20;91.00;;;;;;5096341;28;20278;-92
2021/06/20 02:45:19;;;;;;;71.75;40.30;;;19.40;90.70;;;;;;5096023;28;20176;-92
2021/06/20 02:47:45;;;;;;;86.65;42.80;;;19.50;90.40;;;;;;5096011;28;20656;-92
2021/06/20 02:50:12;;;;;;;72.00;39.78;;;19.40;90.30;;;;;;5095855;28;20172;-92
2021/06/20 02:52:38;;;;;;;85.80;41.60;;;19.50;90.10;;;;;;5094729;28;20206;-91
2021/06/20 02:55:04;;;;;;;95.63;42.50;;;19.50;89.70;;;;;;5097725;28;20176;-91
2021/06/20 02:57:31;;;;;;;79.10;40.95;;;19.40;89.60;;;;;;5103767;28;20417;-91
2021/06/20 02:59:58;;;;;;;90.45;42.92;;;19.20;90.30;;;;;;5098076;28;20183;-92
2021/06/20 03:02:24;;;;;;;85.93;45.17;;;19.20;91.10;;;;;;5096006;28;20195;-91
2021/06/20 03:04:52;;;;;;;84.85;42.67;;;19.20;91.70;;;;;;5096406;28;20180;-91
2021/06/20 03:07:17;;;;;;;91.85;43.85;;;19.30;92.00;;;;;;5104839;28;20183;-92
2021/06/20 03:09:43;;;;;;;87.53;45.33;;;19.40;92.10;;;;;;5110673;28;20211;-91
2021/06/20 03:12:12;;;;;;;80.85;42.63;;;19.50;91.80;;;;;;5110546;28;20195;-91
2021/06/20 03:14:38;;;;;;;88.82;44.97;;;19.60;90.50;;;;;;5097072;28;20176;-90
2021/06/20 03:17:08;;;;;;;103.97;46.30;;;19.40;89.20;;;;;;5075931;28;20176;-91
2021/06/20 03:19:36;;;;;;;78.80;41.80;;;19.40;88.70;;;;;;5083244;28;20175;-91
2021/06/20 03:22:04;;;;;;;92.50;43.08;;;19.50;88.70;;;;;;5094324;28;20202;-90
2021/06/20 03:24:32;;;;;;;84.72;44.67;;;19.40;88.50;;;;;;5095062;28;20203;-92
2021/06/20 03:26:58;;;;;;;79.32;41.47;;;19.50;88.60;;;;;;5095213;28;20175;-91
2021/06/20 03:29:24;;;;;;;90.40;42.83;;;19.60;88.50;;;;;;5095867;28;20196;-91
2021/06/20 03:31:51;;;;;;;78.78;41.83;;;19.50;88.30;;;;;;5094625;28;20192;-91
2021/06/20 03:34:17;;;;;;;86.35;43.22;;;19.40;88.40;;;;;;5101985;28;20251;-91
2021/06/20 03:36:43;;;;;;;76.78;40.55;;;19.50;88.70;;;;;;5117898;28;20167;-89
2021/06/20 03:39:09;;;;;;;77.27;38.80;;;19.50;88.70;;;;;;5118676;28;20171;-91
2021/06/20 03:41:35;;;;;;;83.53;43.40;;;19.50;88.80;;;;;;5113788;28;20185;-91
2021/06/20 03:44:00;;;;;;;76.30;39.57;;;19.50;89.00;;;;;;5118416;28;20426;-91
2021/06/20 03:46:26;;;;;;;73.57;38.90;;;19.60;89.20;;;;;;5106793;28;20443;-91
2021/06/20 03:48:52;;;;;;;83.80;40.17;;;19.60;88.90;;;;;;5099854;28;20460;-91
2021/06/20 03:51:18;;;;;;;73.37;38.20;;;19.60;89.10;;;;;;5098591;28;20678;-91
2021/06/20 03:53:45;;;;;;;69.37;38.50;;;19.50;89.50;;;;;;5096663;28;20275;-91
2021/06/20 03:56:11;;;;;;;86.22;40.15;;;19.50;90.10;;;;;;5097273;28;20512;-91
2021/06/20 03:58:36;;;;;;;86.30;44.20;;;19.50;90.80;;;;;;5099448;28;20188;-91
2021/06/20 04:01:04;;;;;;;77.03;40.80;;;19.50;91.20;;;;;;5096871;28;20293;-91
2021/06/20 04:03:30;;;;;;;92.53;43.85;;;19.50;91.50;;;;;;5118566;28;20209;-89
2021/06/20 04:05:56;;;;;;;100.25;45.30;;;19.50;91.70;;;;;;5122935;28;20199;-89
2021/06/20 04:08:22;;;;;;;107.87;51.80;;;19.50;91.80;;;;;;5112593;28;20211;-91
2021/06/20 04:10:47;;;;;;;109.80;50.63;;;19.40;91.80;;;;;;5099273;28;20203;-91
2021/06/20 04:13:13;;;;;;;107.10;49.50;;;19.40;91.90;;;;;;5107233;28;20187;-91
2021/06/20 04:15:39;;;;;;;100.57;47.10;;;19.50;92.00;;;;;;5105967;28;20278;-92
2021/06/20 04:18:05;;;;;;;88.80;41.45;;;19.50;92.00;;;;;;5099706;28;20456;-91
2021/06/20 04:20:31;;;;;;;79.70;38.40;;;19.40;91.40;;;;;;5093968;28;20192;-91
2021/06/20 04:22:57;;;;;;;70.22;35.40;;;19.40;91.20;;;;;;5079654;28;20415;-91
2021/06/20 04:25:23;;;;;;;62.13;32.67;;;19.40;91.00;;;;;;5079514;28;20199;-90
2021/06/20 04:27:49;;;;;;;63.30;34.07;;;19.40;91.10;;;;;;5081825;28;20662;-91
2021/06/20 04:30:20;;;;;;;66.35;35.28;;;19.40;90.70;;;;;;5079668;28;20925;-91
2021/06/20 04:32:48;;;;;;;69.32;33.55;;;19.40;90.70;;;;;;5079009;28;20264;-91
2021/06/20 04:35:15;;;;;;;65.22;33.92;;;19.40;90.80;;;;;;5078646;28;20169;-91
2021/06/20 04:37:42;;;;;;;70.03;31.48;;;19.40;90.90;;;;;;5091844;28;20207;-91
2021/06/20 04:40:12;;;;;;;73.72;34.95;;;19.40;91.00;;;;;;5097276;28;20225;-91
2021/06/20 04:42:39;;;;;;;64.80;33.55;;;19.40;91.20;;;;;;5098724;28;20678;-91
2021/06/20 04:45:07;;;;;;;70.65;33.55;;;19.40;91.20;;;;;;5097523;28;20184;-91
2021/06/20 04:47:33;;;;;;;65.32;33.10;;;19.50;91.00;;;;;;5098177;28;20184;-91
2021/06/20 04:49:59;;;;;;;60.85;29.45;;;19.50;90.40;;;;;;5097734;28;20175;-92
2021/06/20 04:52:26;;;;;;;57.95;30.58;;;19.40;90.30;;;;;;5097720;28;20224;-90
2021/06/20 04:54:52;;;;;;;69.20;31.58;;;19.40;90.40;;;;;;5097663;28;20183;-91
2021/06/20 04:57:24;;;;;;;79.82;36.53;;;19.50;90.00;;;;;;5097414;28;20176;-91
2021/06/20 04:59:52;;;;;;;69.10;35.10;;;19.50;90.10;;;;;;5098058;28;20172;-93
2021/06/20 05:02:21;;;;;;;91.63;37.83;;;19.50;90.40;;;;;;5097116;28;20192;-91
2021/06/20 05:04:48;;;;;;;89.80;39.90;;;19.50;89.90;;;;;;5097545;28;20176;-91
2021/06/20 05:07:14;;;;;;;95.03;40.03;;;19.50;90.10;;;;;;5098266;28;20203;-91
2021/06/20 05:09:43;;;;;;;88.80;40.70;;;19.40;90.50;;;;;;5097857;28;20265;-92
2021/06/20 05:12:10;;;;;;;79.57;37.97;;;19.40;90.90;;;;;;5096369;28;20434;-91
2021/06/20 05:14:43;;;;;;;77.72;38.38;;;19.40;91.30;;;;;;5094379;28;20183;-91
2021/06/20 05:17:14;;;;;;;93.70;39.08;;;19.40;91.50;;;;;;5077541;28;20194;-91
2021/06/20 05:19:40;;;;;;;98.45;41.25;;;19.50;91.50;;;;;;5077231;28;20259;-91
2021/06/20 05:22:09;;;;;;;114.32;43.38;;;19.50;91.10;;;;;;5077176;28;20295;-91
2021/06/20 05:24:36;;;;;;;104.25;43.42;;;19.50;91.00;;;;;;5077665;28;20212;-90
2021/06/20 05:27:02;;;;;;;105.45;43.78;;;19.40;91.00;;;;;;5076898;28;20183;-90
2021/06/20 05:29:28;;;;;;;112.05;45.22;;;19.40;91.10;;;;;;5076947;28;20204;-90
2021/06/20 05:31:54;;;;;;;111.27;41.93;;;19.40;91.20;;;;;;5079526;28;20536;-91
2021/06/20 05:34:19;;;;;;;106.40;44.50;;;19.30;91.30;;;;;;5096450;28;20176;-89
2021/06/20 05:36:45;;;;;;;97.03;40.90;;;19.40;91.10;;;;;;5089172;28;20223;-90
2021/06/20 05:39:11;;;;;;;93.23;37.73;;;19.50;91.00;;;;;;5076076;28;20179;-91
2021/06/20 05:41:37;;;;;;;87.67;38.90;;;19.60;90.40;;;;;;5094541;28;20200;-90
2021/06/20 05:44:03;;;;;;;80.60;33.00;;;19.80;90.80;;;;;;5096874;28;20225;-90
2021/06/20 05:46:30;;;;;;;59.90;28.53;;;20.40;91.30;;;;;;5097104;28;20414;-91
2021/06/20 05:48:56;;;;;;;52.40;27.48;;;20.80;90.10;;;;;;5096593;28;20457;-91
2021/06/20 05:51:22;;;;;;;51.63;25.40;;;21.10;88.70;;;;;;5096339;28;20248;-91
2021/06/20 05:53:47;;;;;;;46.37;26.70;;;21.40;86.50;;;;;;5096429;28;20462;-91
2021/06/20 05:56:13;;;;;;;54.57;24.60;;;21.40;85.10;;;;;;5097164;28;20270;-91
2021/06/20 05:58:39;;;;;;;48.10;25.80;;;21.40;84.10;;;;;;5096809;28;20673;-91
2021/06/20 06:01:05;;;;;;;47.93;24.57;;;21.40;80.90;;;;;;5097038;28;20287;-91
2021/06/20 06:03:35;;;;;;;45.57;24.93;;;21.40;80.90;;;;;;5096883;28;20449;-91
2021/06/20 06:06:01;;;;;;;43.47;24.65;;;21.40;81.20;;;;;;5097127;28;20488;-91
2021/06/20 06:08:28;;;;;;;46.30;24.83;;;21.20;81.70;;;;;;5096984;28;20239;-91
2021/06/20 06:10:53;;;;;;;43.97;24.73;;;21.20;81.90;;;;;;5104300;28;20196;-91
2021/06/20 06:13:20;;;;;;;43.20;24.63;;;21.20;81.90;;;;;;5099474;28;20185;-91
2021/06/20 06:15:46;;;;;;;40.75;24.17;;;21.20;81.80;;;;;;5105606;28;20262;-91
2021/06/20 06:18:11;;;;;;;42.67;23.70;;;21.20;80.30;;;;;;5111547;28;20240;-90
2021/06/20 06:20:37;;;;;;;43.17;24.20;;;21.10;80.50;;;;;;5099178;28;20738;-91
2021/06/20 06:23:04;;;;;;;37.80;21.20;;;21.20;81.70;;;;;;5097368;28;20639;-91
2021/06/20 06:25:30;;;;;;;40.97;21.30;;;21.40;81.20;;;;;;5096719;28;20210;-92
2021/06/20 06:27:56;;;;;;;35.80;21.43;;;21.70;81.30;;;;;;5096796;28;20453;-93
2021/06/20 06:30:22;;;;;;;30.93;19.90;;;22.40;81.20;;;;;;5097079;28;20955;-92
2021/06/20 06:32:49;;;;;;;30.60;19.40;;;23.10;78.90;;;;;;5086693;28;20180;-92
2021/06/20 06:35:15;;;;;;;31.07;19.37;;;23.40;74.10;;;;;;5077075;28;20414;-92
2021/06/20 06:37:42;;;;;;;30.30;18.57;;;23.60;73.90;;;;;;5077233;28;20411;-92
2021/06/20 06:40:09;;;;;;;29.63;19.50;;;23.70;73.50;;;;;;5083947;28;20420;-91
2021/06/20 06:42:35;;;;;;;35.13;22.80;;;23.80;72.30;;;;;;5097106;28;20463;-91
2021/06/20 06:45:03;;;;;;;31.07;19.27;;;23.50;70.80;;;;;;5096436;28;20471;-91
2021/06/20 06:47:29;;;;;;;30.03;19.93;;;23.30;71.00;;;;;;5102309;28;20777;-90
2021/06/20 06:49:55;;;;;;;31.87;19.03;;;23.40;70.80;;;;;;5095944;28;20432;-91
2021/06/20 06:52:21;;;;;;;28.33;18.47;;;23.60;70.10;;;;;;5095559;28;20438;-91
2021/06/20 06:54:55;;;;;;;29.30;18.97;;;23.60;68.50;;;;;;5095672;28;20449;-91
2021/06/20 06:57:22;;;;;;;26.57;17.70;;;23.60;68.50;;;;;;5096010;28;20168;-90
2021/06/20 06:59:52;;;;;;;27.90;18.23;;;23.80;69.10;;;;;;5095527;28;20421;-91
2021/06/20 07:02:18;;;;;;;30.80;19.40;;;23.80;69.00;;;;;;5095129;28;20474;-90
2021/06/20 07:04:44;;;;;;;25.67;18.63;;;24.20;68.20;;;;;;5095331;28;20422;-91
2021/06/20 07:07:11;;;;;;;24.70;17.27;;;24.60;67.60;;;;;;5096317;28;20441;-92
2021/06/20 07:09:37;;;;;;;23.60;18.03;;;25.10;66.60;;;;;;5097973;28;20214;-91
2021/06/20 07:12:03;;;;;;;23.50;18.30;;;25.20;64.30;;;;;;5101864;28;20426;-91
2021/06/20 07:14:33;;;;;;;25.53;17.00;;;25.10;62.70;;;;;;5100386;28;20171;-91
2021/06/20 07:17:00;;;;;;;24.07;16.63;;;24.90;62.50;;;;;;5100355;28;20422;-91
2021/06/20 07:19:42;;;;;;;24.90;17.70;;;24.90;62.80;;;;;;5099597;28;20422;-91
2021/06/20 07:22:08;;;;;;;23.43;16.13;;;25.20;63.40;;;;;;5105648;28;20445;-91
2021/06/20 07:24:34;;;;;;;21.20;14.30;;;25.50;63.40;;;;;;5111181;28;20426;-90
2021/06/20 07:26:59;;;;;;;21.73;15.40;;;25.90;64.30;;;;;;5112197;28;20230;-90
2021/06/20 07:29:25;;;;;;;20.43;14.40;;;26.40;61.90;;;;;;5112737;28;20466;-88
2021/06/20 07:31:51;;;;;;;18.23;13.23;;;26.60;61.10;;;;;;5111025;28;20675;-87
2021/06/20 07:34:17;;;;;;;20.97;14.07;;;26.50;60.60;;;;;;5107301;28;20213;-87
2021/06/20 07:36:43;;;;;;;15.83;12.20;;;26.30;61.20;;;;;;5112976;28;20173;-88
2021/06/20 07:39:09;;;;;;;23.13;13.47;;;25.90;61.50;;;;;;5109407;28;20187;-87
2021/06/20 07:41:35;;;;;;;15.67;12.73;;;25.70;62.60;;;;;;5106940;28;20441;-87
2021/06/20 07:44:00;;;;;;;13.53;11.90;;;25.60;63.00;;;;;;5106189;28;20184;-87
2021/06/20 07:46:27;;;;;;;15.60;10.93;;;25.20;63.20;;;;;;5109530;28;20337;-87
2021/06/20 07:48:53;;;;;;;16.87;11.97;;;25.00;64.30;;;;;;5110502;28;20540;-87
2021/06/20 07:51:18;;;;;;;17.10;12.63;;;24.80;64.80;;;;;;5110405;28;20440;-87
2021/06/20 07:53:44;;;;;;;16.70;12.90;;;24.80;65.70;;;;;;5109274;28;20176;-87
2021/06/20 07:56:10;;;;;;;19.03;11.20;;;24.70;65.50;;;;;;5108263;28;20176;-87
2021/06/20 07:58:36;;;;;;;13.90;11.03;;;24.50;65.60;;;;;;5104110;28;20418;-87
2021/06/20 08:01:02;;;;;;;15.83;10.87;;;24.30;66.40;;;;;;5100045;28;20685;-87
2021/06/20 08:03:29;;;;;;;13.70;11.20;;;24.10;67.60;;;;;;5100498;28;20179;-87
2021/06/20 08:05:55;;;;;;;14.03;11.27;;;24.00;67.50;;;;;;5100836;28;20456;-87
2021/06/20 08:08:20;;;;;;;14.43;10.37;;;24.10;67.10;;;;;;5100647;28;20438;-88
2021/06/20 08:10:46;;;;;;;14.37;10.83;;;24.10;67.30;;;;;;5100316;28;20200;-86
2021/06/20 08:13:14;;;;;;;11.10;9.10;;;24.20;66.60;;;;;;5090200;28;20498;-87
2021/06/20 08:15:40;;;;;;;12.70;10.27;;;24.10;66.50;;;;;;5094433;28;20172;-88
2021/06/20 08:18:06;;;;;;;12.23;9.70;;;24.30;66.60;;;;;;5110088;28;20421;-86
2021/06/20 08:20:31;;;;;;;11.03;7.50;;;24.30;65.40;;;;;;5106657;28;20233;-88
2021/06/20 08:22:57;;;;;;;12.37;8.17;;;24.20;65.50;;;;;;5113777;28;20421;-88
2021/06/20 08:25:23;;;;;;;8.43;6.63;;;24.00;65.00;;;;;;5098002;28;20192;-87
2021/06/20 08:27:49;;;;;;;11.60;7.07;;;23.90;65.20;;;;;;5099772;28;20179;-88
2021/06/20 08:30:15;;;;;;;8.40;6.30;;;23.90;65.30;;;;;;5099481;28;20414;-86
2021/06/20 08:32:41;;;;;;;6.90;6.13;;;23.70;65.70;;;;;;5100569;28;20430;-87
2021/06/20 08:35:08;;;;;;;7.03;5.60;;;23.80;65.70;;;;;;5082883;28;20454;-87
2021/06/20 08:37:34;;;;;;;5.60;5.10;;;23.70;65.90;;;;;;5100796;28;20176;-88
2021/06/20 08:40:00;;;;;;;8.37;5.53;;;23.70;65.80;;;;;;5100807;28;20444;-88
2021/06/20 08:42:26;;;;;;;8.47;5.43;;;23.70;65.40;;;;;;5096557;28;20441;-86
2021/06/20 08:44:52;;;;;;;6.27;4.70;;;23.70;65.70;;;;;;5099385;28;20187;-86
2021/06/20 08:47:18;;;;;;;6.90;4.87;;;23.90;66.20;;;;;;5099606;28;20420;-88
2021/06/20 08:49:45;;;;;;;5.00;4.60;;;23.70;64.50;;;;;;5100952;28;20472;-86
2021/06/20 08:52:11;;;;;;;5.70;4.17;;;23.70;64.90;;;;;;5111654;28;20429;-87
2021/06/20 08:54:38;;;;;;;4.60;3.83;;;23.70;65.30;;;;;;5119622;28;20425;-85
2021/06/20 08:57:07;;;;;;;4.73;4.13;;;23.80;65.90;;;;;;5112744;28;20416;-86
2021/06/20 08:59:33;;;;;;;5.30;3.43;;;23.90;65.40;;;;;;5104159;28;20443;-86
2021/06/20 09:01:58;;;;;;;4.73;3.40;;;24.10;64.60;;;;;;5102469;28;20434;-87
2021/06/20 09:04:34;;;;;;;3.40;3.17;;;24.00;63.60;;;;;;5104984;28;20179;-86
2021/06/20 09:07:04;;;;;;;10.33;3.80;;;24.20;64.10;;;;;;5104534;28;20320;-87
2021/06/20 09:09:32;;;;;;;5.47;3.20;;;24.20;63.40;;;;;;5105328;28;20465;-86
2021/06/20 09:12:14;;;;;;;3.17;2.97;;;24.20;63.10;;;;;;5104523;28;20437;-85
2021/06/20 09:14:48;;;;;;;3.07;2.70;;;24.20;62.90;;;;;;5087477;28;20414;-86
2021/06/20 09:17:27;;;;;;;3.10;2.50;;;24.20;63.20;;;;;;5101662;28;20409;-85
2021/06/20 09:19:58;;;;;;;2.63;2.43;;;24.20;63.90;;;;;;5102449;28;20421;-86
2021/06/20 09:22:24;;;;;;;2.93;2.73;;;24.10;63.20;;;;;;5101622;28;20442;-86
2021/06/20 09:25:04;;;;;;;2.90;2.70;;;24.20;63.70;;;;;;5102386;28;20422;-86
2021/06/20 09:27:30;;;;;;;5.60;3.57;;;24.10;63.20;;;;;;5102809;28;20168;-86
2021/06/20 09:30:15;;;;;;;5.67;2.37;;;24.30;64.20;;;;;;5104352;28;20457;-86
2021/06/20 09:32:53;;;;;;;3.43;2.23;;;24.20;63.70;;;;;;5102440;28;20272;-86
2021/06/20 09:35:18;;;;;;;2.60;2.40;;;24.30;62.60;;;;;;5102550;28;20779;-86
2021/06/20 09:37:52;;;;;;;3.30;1.90;;;24.40;61.90;;;;;;5103621;28;20435;-87
2021/06/20 09:40:18;;;;;;;3.23;2.30;;;24.60;61.80;;;;;;5101786;28;20179;-86
2021/06/20 09:42:44;;;;;;;6.83;1.90;;;24.60;62.40;;;;;;5104110;28;20426;-86
2021/06/20 09:45:11;;;;;;;2.03;1.93;;;24.30;61.20;;;;;;5105220;28;20418;-86
2021/06/20 09:47:41;;;;;;;2.03;1.83;;;24.20;61.80;;;;;;5105430;28;20175;-85
2021/06/20 09:50:09;;;;;;;1.73;1.63;;;24.30;61.90;;;;;;5101971;28;20432;-85
2021/06/20 09:52:36;;;;;;;3.80;1.83;;;24.40;62.80;;;;;;5101052;28;20438;-87
2021/06/20 09:55:10;;;;;;;2.90;1.80;;;24.60;61.50;;;;;;5101604;28;20900;-87
2021/06/20 09:57:44;;;;;;;1.90;1.70;;;24.60;61.20;;;;;;5100584;28;20414;-86
2021/06/20 10:00:13;;;;;;;2.57;1.43;;;24.60;61.80;;;;;;5100605;28;20413;-87
2021/06/20 10:02:40;;;;;;;2.00;1.80;;;24.60;61.40;;;;;;5100446;28;20445;-86
2021/06/20 10:05:10;;;;;;;2.07;1.97;;;24.70;61.40;;;;;;5101817;28;20442;-87
2021/06/20 10:07:37;;;;;;;1.77;1.40;;;24.70;59.50;;;;;;5102255;28;20479;-86
2021/06/20 10:10:06;;;;;;;2.07;1.50;;;24.80;59.20;;;;;;5101290;28;20442;-86
2021/06/20 10:12:32;;;;;;;2.17;1.43;;;24.80;59.20;;;;;;5099701;28;20429;-86
2021/06/20 10:15:00;;;;;;;2.50;1.60;;;24.70;60.00;;;;;;5102299;28;20418;-86
2021/06/20 10:17:30;;;;;;;2.23;1.43;;;24.70;60.40;;;;;;5103201;28;20445;-86
2021/06/20 10:19:58;;;;;;;2.60;1.57;;;24.70;59.60;;;;;;5103013;28;20882;-87
2021/06/20 10:22:24;;;;;;;1.70;1.60;;;24.80;59.70;;;;;;5101653;28;20493;-87
2021/06/20 10:24:56;;;;;;;1.50;1.40;;;24.80;59.70;;;;;;5101178;28;20449;-86
2021/06/20 10:27:29;;;;;;;1.50;1.40;;;24.80;58.70;;;;;;5100714;28;20168;-86
2021/06/20 10:29:56;;;;;;;2.83;1.63;;;24.60;59.20;;;;;;5101501;28;20962;-86
2021/06/20 10:32:25;;;;;;;3.03;2.27;;;24.70;59.10;;;;;;5099546;28;20433;-86
2021/06/20 10:34:57;;;;;;;3.87;1.33;;;24.80;59.70;;;;;;5093392;28;20841;-86
2021/06/20 10:37:24;;;;;;;3.90;1.90;;;24.80;58.00;;;;;;5100007;28;20437;-86
2021/06/20 10:39:52;;;;;;;3.73;1.53;;;25.10;57.80;;;;;;5100311;28;20445;-87
2021/06/20 10:42:19;;;;;;;1.27;1.17;;;25.00;57.30;;;;;;5100069;28;20441;-86
2021/06/20 10:44:52;;;;;;;4.93;1.60;;;25.00;56.80;;;;;;5100665;28;20410;-87
2021/06/20 10:47:36;;;;;;;4.23;1.80;;;25.00;56.30;;;;;;5101732;28;20397;-87
2021/06/20 10:50:07;;;;;;;1.67;1.53;;;25.10;56.50;;;;;;5101540;28;20426;-86
2021/06/20 10:52:32;;;;;;;2.00;1.67;;;25.00;56.60;;;;;;5100122;28;20441;-86
2021/06/20 10:55:13;;;;;;;2.23;1.60;;;25.00;57.40;;;;;;5100410;28;20418;-86
2021/06/20 10:57:53;;;;;;;1.50;1.40;;;25.10;57.40;;;;;;5101229;28;20504;-86
2021/06/20 11:00:27;;;;;;;1.40;1.30;;;24.90;56.80;;;;;;5102035;28;20828;-87
2021/06/20 11:02:55;;;;;;;1.50;1.40;;;25.20;58.10;;;;;;5104459;28;20477;-87
2021/06/20 11:05:24;;;;;;;2.63;1.40;;;25.10;57.20;;;;;;5108331;28;20429;-86
2021/06/20 11:08:06;;;;;;;2.30;1.50;;;25.30;56.30;;;;;;5117017;28;20488;-86
2021/06/20 11:10:31;;;;;;;1.90;1.80;;;25.10;55.30;;;;;;5106550;28;20447;-86
2021/06/20 11:12:57;;;;;;;2.10;1.60;;;25.10;57.50;;;;;;5095154;28;20419;-86
2021/06/20 11:15:28;;;;;;;3.20;1.50;;;25.20;57.10;;;;;;5082097;28;20635;-86
2021/06/20 11:18:07;;;;;;;1.27;1.17;;;25.10;57.10;;;;;;5080488;28;20468;-87
2021/06/20 11:20:34;;;;;;;1.70;1.60;;;24.90;54.90;;;;;;5079864;28;20414;-87
2021/06/20 11:23:01;;;;;;;2.60;1.23;;;24.80;54.80;;;;;;5082210;28;20902;-86
2021/06/20 11:25:27;;;;;;;1.63;1.53;;;24.90;54.50;;;;;;5101578;28;20435;-86
2021/06/20 11:27:53;;;;;;;3.10;1.70;;;24.90;54.80;;;;;;5107321;28;20453;-86
2021/06/20 11:30:20;;;;;;;1.63;1.53;;;25.00;56.80;;;;;;5111851;28;20425;-88
2021/06/20 11:32:46;;;;;;;4.17;1.87;;;25.20;57.20;;;;;;5112015;28;20414;-85
2021/06/20 11:35:13;;;;;;;1.80;1.70;;;25.30;56.90;;;;;;5105635;28;20456;-85
2021/06/20 11:37:48;;;;;;;2.80;1.80;;;25.20;57.50;;;;;;5109419;28;20483;-86
2021/06/20 11:40:17;;;;;;;3.63;1.50;;;25.30;57.30;;;;;;5103306;28;20450;-85
2021/06/20 11:42:46;;;;;;;2.10;1.60;;;25.40;54.50;;;;;;5101560;28;20437;-86
2021/06/20 11:45:20;;;;;;;2.07;1.87;;;25.50;54.00;;;;;;5101119;28;20414;-86
2021/06/20 11:47:49;;;;;;;4.17;2.03;;;25.50;55.60;;;;;;5100270;28;20824;-87
2021/06/20 11:50:18;;;;;;;1.80;1.70;;;25.80;54.90;;;;;;5100430;28;20415;-85
2021/06/20 11:52:47;;;;;;;2.07;1.97;;;25.80;53.50;;;;;;5098829;28;20442;-86
2021/06/20 11:55:18;;;;;;;4.63;1.77;;;25.60;53.80;;;;;;5099878;28;20418;-85
2021/06/20 11:57:45;;;;;;;1.60;1.50;;;25.80;55.20;;;;;;5099721;28;20415;-86
2021/06/20 12:00:14;;;;;;;1.70;1.60;;;26.10;56.00;;;;;;5096862;28;20920;-86
2021/06/20 12:02:40;;;;;;;1.57;1.47;;;26.50;54.00;;;;;;5096366;28;20436;-86
2021/06/20 12:05:06;;;;;;;1.50;1.40;;;26.80;54.10;;;;;;5098932;28;20778;-87
2021/06/20 12:07:32;;;;;;;1.83;1.73;;;26.90;52.50;;;;;;5099325;28;20453;-87
2021/06/20 12:09:59;;;;;;;7.40;1.90;;;26.60;54.00;;;;;;5098971;28;20457;-87
2021/06/20 12:12:25;;;;;;;3.40;1.70;;;26.40;53.20;;;;;;5095851;28;20440;-86
2021/06/20 12:15:04;;;;;;;1.77;1.67;;;26.40;52.50;;;;;;5077753;28;20419;-86
2021/06/20 12:17:31;;;;;;;1.50;1.40;;;26.50;53.20;;;;;;5077681;28;20422;-86
2021/06/20 12:19:57;;;;;;;1.80;1.70;;;26.60;51.80;;;;;;5077389;28;20436;-87
2021/06/20 12:22:24;;;;;;;2.07;1.47;;;26.50;50.10;;;;;;5076603;28;20445;-88
2021/06/20 12:24:54;;;;;;;2.90;2.20;;;26.40;51.80;;;;;;5078623;28;20876;-88
2021/06/20 12:27:30;;;;;;;1.80;1.70;;;26.40;51.80;;;;;;5080036;28;20435;-88
2021/06/20 12:29:57;;;;;;;2.43;2.23;;;26.50;51.80;;;;;;5101180;28;20454;-87
2021/06/20 12:32:22;;;;;;;3.40;1.70;;;26.50;52.00;;;;;;5101939;28;20463;-88